Time;durP1;ratioP1;P1;durP2;ratioP2;P2;SDS_P1;SDS_P2;PMS_P1;PMS_P2;Temp;Humidity;BMP_temperature;BMP_pressure;BME280_temperature;BME280_humidity;BME280_pressure;Samples;Min_cycle;Max_cycle;Signal;HPM_P1;HPM_P2
2022/06/18 00:02:12;;;;;;;11.82;10.60;;;;;;;22.49;100.00;99522.34;5111875;28;20848;-58
2022/06/18 00:04:39;;;;;;;10.38;9.77;;;;;;;22.28;100.00;99493.97;5111824;28;20209;-59
2022/06/18 00:07:09;;;;;;;11.65;10.60;;;;;;;22.43;100.00;99505.16;5111873;28;20198;-58
2022/06/18 00:09:41;;;;;;;11.77;10.80;;;;;;;22.38;100.00;99510.78;5111803;28;20259;-58
2022/06/18 00:15:01;;;;;;;11.15;10.30;;;;;;;22.36;100.00;99499.47;5111978;27;20287;-58
2022/06/18 00:17:29;;;;;;;11.00;10.10;;;;;;;22.45;100.00;99514.66;5111978;27;20190;-59
2022/06/18 00:19:56;;;;;;;11.50;10.52;;;;;;;22.51;100.00;99515.97;5111483;28;20187;-57
2022/06/18 00:22:24;;;;;;;10.82;10.02;;;;;;;22.43;100.00;99503.34;5111678;28;20194;-58
2022/06/18 00:24:52;;;;;;;11.40;10.55;;;;;;;22.49;100.00;99501.19;5111203;28;20285;-58
2022/06/18 00:27:21;;;;;;;11.77;10.98;;;;;;;22.53;99.86;99486.75;5111438;28;20198;-59
2022/06/18 00:29:50;;;;;;;11.68;10.77;;;;;;;22.53;100.00;99484.13;5111374;28;20266;-58
2022/06/18 00:32:17;;;;;;;11.40;10.60;;;;;;;22.39;100.00;99483.38;5111617;28;20198;-58
2022/06/18 00:34:44;;;;;;;11.50;10.75;;;;;;;22.30;100.00;99480.63;5111438;28;20201;-57
2022/06/18 00:37:16;;;;;;;12.35;11.10;;;;;;;22.29;100.00;99482.41;5111458;28;20205;-58
2022/06/18 00:39:43;;;;;;;11.30;10.45;;;;;;;22.38;100.00;99473.75;5111287;28;20244;-57
2022/06/18 00:42:27;;;;;;;12.75;11.75;;;;;;;22.48;99.69;99473.88;5111151;28;20191;-58
2022/06/18 00:44:56;;;;;;;11.77;10.70;;;;;;;22.58;98.82;99469.53;5110980;28;20194;-59
2022/06/18 00:47:29;;;;;;;11.20;10.40;;;;;;;22.41;99.93;99467.41;5110299;28;20191;-59
2022/06/18 00:50:04;;;;;;;12.60;11.43;;;;;;;22.37;99.97;99466.78;5110897;28;20214;-60
2022/06/18 00:52:37;;;;;;;11.95;10.88;;;;;;;22.44;99.67;99461.88;5111250;28;20281;-60
2022/06/18 00:55:10;;;;;;;11.77;10.82;;;;;;;22.46;100.00;99452.84;5111187;28;20201;-57
2022/06/18 00:57:45;;;;;;;11.55;10.80;;;;;;;22.56;100.00;99465.38;5110934;28;20321;-57
2022/06/18 01:00:27;;;;;;;11.75;10.60;;;;;;;22.54;100.00;99462.00;5110733;28;20293;-58
2022/06/18 01:02:54;;;;;;;11.88;11.05;;;;;;;22.58;99.18;99463.41;5110441;28;20230;-58
2022/06/18 01:05:24;;;;;;;11.77;10.77;;;;;;;22.61;99.33;99455.25;5110767;28;20761;-58
2022/06/18 01:07:55;;;;;;;11.88;10.98;;;;;;;22.51;99.30;99444.56;5110685;28;20209;-58
2022/06/18 01:10:29;;;;;;;11.73;10.68;;;;;;;22.53;100.00;99447.09;5110636;28;20206;-59
2022/06/18 01:12:59;;;;;;;11.70;10.90;;;;;;;22.57;99.47;99445.88;5110529;28;20590;-58
2022/06/18 01:15:27;;;;;;;11.20;10.40;;;;;;;22.61;98.95;99440.22;5110909;28;20191;-59
2022/06/18 01:17:55;;;;;;;11.48;10.60;;;;;;;22.67;98.90;99441.53;5110499;28;20198;-60
2022/06/18 01:20:24;;;;;;;11.82;10.85;;;;;;;22.67;99.31;99431.81;5110578;28;20649;-60
2022/06/18 01:22:57;;;;;;;11.93;10.93;;;;;;;22.77;98.24;99439.88;5110382;28;20203;-60
2022/06/18 01:25:28;;;;;;;11.75;10.85;;;;;;;22.83;97.48;99444.66;5110133;28;20543;-59
2022/06/18 01:27:56;;;;;;;12.10;11.00;;;;;;;22.74;97.71;99450.66;5110554;28;20580;-59
2022/06/18 01:30:26;;;;;;;12.25;11.18;;;;;;;22.65;98.32;99443.47;5110236;28;20205;-59
2022/06/18 01:32:56;;;;;;;11.88;10.88;;;;;;;22.61;98.17;99436.72;5110158;28;20209;-59
2022/06/18 01:35:25;;;;;;;11.73;10.65;;;;;;;22.61;97.83;99448.16;5110190;28;20195;-59
2022/06/18 01:37:52;;;;;;;12.20;11.18;;;;;;;22.55;96.84;99443.34;5110120;28;20285;-58
2022/06/18 01:40:26;;;;;;;12.35;11.07;;;;;;;22.49;96.98;99449.13;5110253;28;20195;-61
2022/06/18 01:42:59;;;;;;;12.32;10.98;;;;;;;22.41;97.74;99455.03;5110124;28;20289;-60
2022/06/18 01:45:31;;;;;;;11.20;10.18;;;;;;;22.44;97.02;99454.78;5109994;28;20260;-59
2022/06/18 01:48:03;;;;;;;11.50;10.68;;;;;;;22.53;96.37;99455.00;5109901;28;20191;-59
2022/06/18 01:50:34;;;;;;;11.30;10.50;;;;;;;22.53;95.37;99445.28;5109890;28;20195;-59
2022/06/18 01:53:05;;;;;;;12.63;11.40;;;;;;;22.42;96.12;99432.06;5109937;28;20199;-59
2022/06/18 01:55:36;;;;;;;10.38;9.77;;;;;;;22.50;95.62;99444.66;5109892;28;20294;-58
2022/06/18 01:58:11;;;;;;;10.77;10.07;;;;;;;22.49;94.22;99440.34;5109774;28;20198;-60
2022/06/18 02:00:38;;;;;;;10.05;9.38;;;;;;;22.42;93.48;99448.78;5109833;28;20193;-60
2022/06/18 02:03:06;;;;;;;9.85;9.15;;;;;;;22.33;93.30;99431.00;5109496;28;20258;-59
2022/06/18 02:05:34;;;;;;;9.55;8.80;;;;;;;22.43;93.04;99447.81;5109873;28;20227;-58
2022/06/18 02:08:01;;;;;;;9.38;8.77;;;;;;;22.39;93.02;99462.22;5109884;28;20323;-59
2022/06/18 02:10:33;;;;;;;8.43;7.80;;;;;;;22.25;93.94;99451.03;5109830;28;20230;-59
2022/06/18 02:13:03;;;;;;;8.35;7.88;;;;;;;22.26;93.65;99450.06;5109881;28;20585;-58
2022/06/18 02:15:36;;;;;;;9.05;8.30;;;;;;;22.24;93.91;99446.69;5109603;28;20245;-59
2022/06/18 02:18:05;;;;;;;9.00;8.40;;;;;;;22.20;94.36;99448.78;5109839;28;20199;-59
2022/06/18 02:20:37;;;;;;;9.70;9.10;;;;;;;22.11;95.53;99454.78;5109363;28;20199;-58
2022/06/18 02:23:04;;;;;;;12.88;11.93;;;;;;;22.09;96.08;99448.75;5109277;28;20689;-59
2022/06/18 02:25:33;;;;;;;15.38;13.88;;;;;;;22.08;96.49;99453.19;5106374;28;20269;-58
2022/06/18 02:28:03;;;;;;;9.73;9.05;;;;;;;22.08;96.64;99455.84;5109046;28;20217;-59
2022/06/18 02:30:35;;;;;;;11.98;10.85;;;;;;;21.94;97.96;99449.88;5109967;28;20662;-58
2022/06/18 02:33:05;;;;;;;18.77;16.08;;;;;;;21.97;98.39;99447.03;5109582;28;20285;-59
2022/06/18 02:35:33;;;;;;;15.68;14.20;;;;;;;21.83;99.72;99450.72;5109667;28;20570;-60
2022/06/18 02:38:01;;;;;;;12.15;11.23;;;;;;;21.82;100.00;99448.19;5109559;28;20277;-57
2022/06/18 02:40:32;;;;;;;11.02;9.98;;;;;;;21.85;100.00;99448.81;5109511;28;20733;-60
2022/06/18 02:43:01;;;;;;;11.90;10.93;;;;;;;21.85;100.00;99448.81;5109705;28;20759;-60
2022/06/18 02:45:32;;;;;;;14.98;13.63;;;;;;;21.83;100.00;99444.59;5109528;28;20195;-58
2022/06/18 02:48:01;;;;;;;12.27;11.02;;;;;;;21.79;100.00;99438.69;5108329;28;20595;-59
2022/06/18 02:50:32;;;;;;;11.13;9.20;;;;;;;21.81;100.00;99436.78;5108153;28;20605;-58
2022/06/18 02:53:02;;;;;;;10.00;9.30;;;;;;;21.88;100.00;99442.44;5107978;28;20654;-59
2022/06/18 02:55:34;;;;;;;12.02;11.02;;;;;;;21.89;100.00;99449.41;5108086;28;20745;-59
2022/06/18 02:58:06;;;;;;;12.80;11.70;;;;;;;21.86;100.00;99449.66;5107802;28;20197;-58
2022/06/18 03:00:36;;;;;;;21.05;18.90;;;;;;;21.82;100.00;99446.38;5108008;28;20191;-60
2022/06/18 03:03:04;;;;;;;12.20;11.07;;;;;;;21.79;100.00;99448.41;5107716;28;20229;-59
2022/06/18 03:05:32;;;;;;;14.93;13.73;;;;;;;21.69;100.00;99443.81;5107700;28;20286;-60
2022/06/18 03:07:59;;;;;;;14.32;12.85;;;;;;;21.74;100.00;99452.25;5108113;28;20240;-60
2022/06/18 03:13:10;;;;;;;11.45;10.43;;;;;;;21.65;100.00;99445.03;5109849;28;20205;-59
2022/06/18 03:15:38;;;;;;;14.23;11.60;;;;;;;21.80;100.00;99445.66;5111611;28;20191;-59
2022/06/18 03:18:07;;;;;;;12.80;10.32;;;;;;;21.88;100.00;99459.16;5108876;28;20191;-59
2022/06/18 03:20:48;;;;;;;27.33;24.23;;;;;;;21.96;100.00;99466.47;5111638;28;20191;-60
2022/06/18 03:23:18;;;;;;;11.88;10.98;;;;;;;22.04;100.00;99461.47;5104364;28;20206;-62
2022/06/18 03:25:45;;;;;;;11.55;10.48;;;;;;;22.05;100.00;99457.88;5110114;28;20229;-61
2022/06/18 03:28:14;;;;;;;10.80;9.95;;;;;;;22.14;100.00;99464.25;5111349;28;20590;-58
2022/06/18 03:30:42;;;;;;;9.82;9.13;;;;;;;22.11;100.00;99465.34;5111145;28;20190;-57
2022/06/18 03:33:10;;;;;;;18.67;17.00;;;;;;;22.11;100.00;99470.63;5111257;28;20198;-58
2022/06/18 03:35:39;;;;;;;24.30;21.80;;;;;;;22.13;100.00;99466.03;5110727;27;20693;-57
2022/06/18 03:38:06;;;;;;;17.10;15.60;;;;;;;22.13;100.00;99462.56;5111132;28;20197;-57
2022/06/18 03:40:33;;;;;;;18.73;16.58;;;;;;;22.11;100.00;99459.22;5110200;28;20233;-58
2022/06/18 03:43:00;;;;;;;11.65;10.65;;;;;;;22.16;100.00;99460.53;5109492;28;20195;-58
2022/06/18 03:45:27;;;;;;;11.90;10.70;;;;;;;22.13;100.00;99462.56;5109828;28;20291;-58
2022/06/18 03:47:55;;;;;;;12.43;10.95;;;;;;;22.23;100.00;99466.19;5108135;28;20211;-58
2022/06/18 03:50:22;;;;;;;14.57;13.20;;;;;;;22.33;99.40;99470.66;5110191;28;20194;-59
2022/06/18 03:52:49;;;;;;;14.45;12.95;;;;;;;22.57;98.70;99467.06;5110193;28;20221;-57
2022/06/18 03:55:17;;;;;;;19.52;15.35;;;;;;;23.04;95.42;99473.84;5109673;28;20195;-59
2022/06/18 03:57:45;;;;;;;28.20;22.77;;;;;;;23.60;90.31;99469.22;5109978;28;20561;-59
2022/06/18 04:00:19;;;;;;;18.65;16.23;;;;;;;24.54;85.01;99468.28;5110741;28;20679;-65
2022/06/18 04:02:47;;;;;;;20.52;14.48;;;;;;;25.72;77.27;99475.38;5110898;28;20230;-66
2022/06/18 04:05:15;;;;;;;15.40;14.00;;;;;;;26.51;72.03;99475.09;5110487;28;20244;-65
2022/06/18 04:07:43;;;;;;;17.00;14.77;;;;;;;26.86;69.47;99477.03;5109562;27;20222;-64
2022/06/18 04:10:16;;;;;;;18.92;16.98;;;;;;;27.22;67.73;99485.91;5110662;27;20289;-66
2022/06/18 04:12:43;;;;;;;17.90;14.52;;;;;;;28.12;62.73;99480.38;5110739;28;20649;-64
2022/06/18 04:15:12;;;;;;;22.70;20.33;;;;;;;29.26;57.84;99479.09;5109420;28;20195;-66
2022/06/18 04:17:39;;;;;;;16.83;13.65;;;;;;;30.25;54.29;99487.84;5110124;28;20190;-65
2022/06/18 04:20:07;;;;;;;15.77;13.00;;;;;;;31.12;51.22;99494.13;5110312;28;20344;-65
2022/06/18 04:22:35;;;;;;;17.88;16.08;;;;;;;31.94;48.64;99502.44;5110019;28;20278;-65
2022/06/18 04:25:02;;;;;;;11.68;10.68;;;;;;;32.44;46.80;99509.84;5104129;28;20209;-66
2022/06/18 04:27:29;;;;;;;9.48;8.57;;;;;;;32.87;45.71;99505.50;5110132;28;20221;-59
2022/06/18 04:29:56;;;;;;;8.60;7.93;;;;;;;32.86;44.89;99503.84;5109969;28;20199;-59
2022/06/18 04:32:23;;;;;;;8.40;7.80;;;;;;;32.61;45.22;99500.63;5107733;28;20198;-59
2022/06/18 04:34:50;;;;;;;8.48;7.82;;;;;;;32.89;44.40;99508.03;5110035;28;20526;-58
2022/06/18 04:37:17;;;;;;;8.32;7.53;;;;;;;33.09;43.98;99504.53;5109770;28;20198;-57
2022/06/18 04:39:45;;;;;;;7.57;6.53;;;;;;;33.66;42.61;99508.28;5110128;28;20266;-57
2022/06/18 04:42:12;;;;;;;7.90;7.40;;;;;;;33.46;41.80;99505.41;5109788;28;20195;-57
2022/06/18 04:44:39;;;;;;;8.70;7.95;;;;;;;33.07;41.63;99511.16;5109681;28;20191;-57
2022/06/18 04:47:06;;;;;;;8.07;7.43;;;;;;;31.98;44.27;99509.09;5108502;28;20225;-57
2022/06/18 04:49:33;;;;;;;8.30;6.85;;;;;;;30.96;47.05;99505.72;5104159;28;20203;-57
2022/06/18 04:52:00;;;;;;;9.65;7.70;;;;;;;30.28;49.28;99503.56;5109317;28;20199;-57
2022/06/18 04:54:27;;;;;;;9.05;8.40;;;;;;;29.60;51.14;99513.78;5109551;28;20414;-57
2022/06/18 04:56:55;;;;;;;9.50;8.80;;;;;;;29.06;53.27;99510.63;5109609;28;20187;-57
2022/06/18 04:59:22;;;;;;;9.63;8.63;;;;;;;28.49;54.99;99513.03;5109134;28;20194;-56
2022/06/18 05:01:59;;;;;;;13.13;11.57;;;;;;;28.22;56.67;99504.38;5108600;28;20229;-56
2022/06/18 05:04:26;;;;;;;8.98;8.30;;;;;;;27.63;58.61;99508.53;5108259;28;20198;-56
2022/06/18 05:06:54;;;;;;;13.32;12.30;;;;;;;27.33;60.71;99501.69;5109147;28;20553;-52
2022/06/18 05:09:20;;;;;;;13.68;12.27;;;;;;;26.95;62.26;99506.28;5109307;28;20202;-57
2022/06/18 05:11:47;;;;;;;15.73;14.50;;;;;;;26.77;63.55;99511.53;5109667;28;20198;-57
2022/06/18 05:14:16;;;;;;;14.65;13.43;;;;;;;26.57;64.41;99509.94;5108928;28;20670;-56
2022/06/18 05:16:44;;;;;;;8.68;8.00;;;;;;;26.39;65.36;99514.34;5109507;28;20279;-55
2022/06/18 05:19:22;;;;;;;10.35;9.43;;;;;;;26.15;67.21;99516.63;5109497;28;20194;-56
2022/06/18 05:21:49;;;;;;;10.23;8.82;;;;;;;25.86;68.77;99529.94;5108866;28;20212;-56
2022/06/18 05:24:16;;;;;;;9.05;8.43;;;;;;;25.76;69.36;99524.63;5110596;28;20202;-57
2022/06/18 05:26:46;;;;;;;9.57;8.82;;;;;;;25.67;69.62;99523.66;5110600;28;20230;-56
2022/06/18 05:29:14;;;;;;;10.30;9.45;;;;;;;25.75;69.68;99524.75;5109885;28;20228;-57
2022/06/18 05:31:43;;;;;;;13.15;12.15;;;;;;;25.80;69.32;99528.69;5110180;28;20741;-57
2022/06/18 05:34:11;;;;;;;12.18;11.25;;;;;;;25.95;68.80;99540.59;5109984;28;20216;-57
2022/06/18 05:36:38;;;;;;;10.63;9.63;;;;;;;26.24;67.18;99529.91;5110145;28;20191;-56
2022/06/18 05:39:06;;;;;;;10.05;8.40;;;;;;;26.57;65.62;99535.72;5110236;28;20691;-56
2022/06/18 05:41:34;;;;;;;8.23;7.57;;;;;;;27.00;64.12;99535.13;5108970;28;20200;-56
2022/06/18 05:44:02;;;;;;;9.25;8.52;;;;;;;27.26;62.76;99541.44;5107434;28;20220;-56
2022/06/18 05:46:29;;;;;;;9.63;8.48;;;;;;;27.22;62.78;99540.06;5107950;28;20583;-56
2022/06/18 05:48:57;;;;;;;9.30;8.57;;;;;;;27.34;62.51;99535.34;5107878;28;20198;-55
2022/06/18 05:51:25;;;;;;;9.63;8.88;;;;;;;27.58;61.02;99526.81;5108105;28;20637;-56
2022/06/18 05:53:51;;;;;;;12.45;8.02;;;;;;;27.98;60.04;99529.84;5105604;28;20202;-56
2022/06/18 05:56:19;;;;;;;14.50;8.80;;;;;;;29.16;55.69;99538.06;5109973;28;20572;-56
2022/06/18 05:58:46;;;;;;;8.35;7.55;;;;;;;30.47;50.99;99549.75;5109836;28;20277;-56
2022/06/18 06:01:13;;;;;;;9.18;8.30;;;;;;;30.74;49.18;99543.16;5110128;28;20204;-55
2022/06/18 06:03:39;;;;;;;23.65;11.50;;;;;;;29.99;50.43;99547.97;5109445;28;20313;-56
2022/06/18 06:06:08;;;;;;;8.73;7.63;;;;;;;30.33;50.03;99546.75;5109824;28;20840;-56
2022/06/18 06:08:35;;;;;;;48.65;14.85;;;;;;;30.81;49.34;99550.38;5109704;28;20313;-53
2022/06/18 06:13:46;;;;;;;8.18;7.60;;;;;;;32.71;43.61;99554.13;5109569;28;20272;-52
2022/06/18 06:16:13;;;;;;;7.15;6.65;;;;;;;33.59;41.99;99553.97;5108835;28;20637;-53
2022/06/18 06:18:39;;;;;;;10.85;6.50;;;;;;;34.36;40.32;99562.19;5107867;28;20470;-53
2022/06/18 06:21:08;;;;;;;6.82;6.25;;;;;;;34.59;39.36;99562.78;5101423;28;20636;-53
2022/06/18 06:23:35;;;;;;;10.35;6.68;;;;;;;34.89;38.63;99555.28;5106820;28;20669;-53
2022/06/18 06:26:03;;;;;;;10.25;7.80;;;;;;;35.51;37.35;99559.72;5107316;28;20198;-53
2022/06/18 06:28:31;;;;;;;7.03;6.68;;;;;;;35.85;36.77;99560.66;5107609;28;20757;-52
2022/06/18 06:30:58;;;;;;;7.32;6.70;;;;;;;35.59;37.26;99561.38;5108028;28;20199;-53
2022/06/18 06:33:25;;;;;;;7.40;6.70;;;;;;;35.90;35.76;99558.13;5108241;28;20193;-52
2022/06/18 06:35:52;;;;;;;7.30;6.72;;;;;;;34.72;37.65;99564.72;5105001;28;20195;-52
2022/06/18 06:38:21;;;;;;;6.90;6.30;;;;;;;33.79;39.46;99560.44;5107859;28;20190;-52
2022/06/18 06:40:48;;;;;;;6.88;6.50;;;;;;;32.40;41.67;99544.31;5107949;28;20190;-53
2022/06/18 06:43:17;;;;;;;7.95;7.45;;;;;;;31.47;43.63;99546.38;5108111;28;20195;-52
2022/06/18 06:45:44;;;;;;;8.63;7.90;;;;;;;30.96;45.03;99547.78;5109786;28;20274;-53
2022/06/18 06:48:12;;;;;;;8.63;7.85;;;;;;;30.40;46.96;99554.09;5111780;28;20229;-53
2022/06/18 06:50:40;;;;;;;7.65;7.05;;;;;;;29.68;48.76;99547.75;5111535;28;20633;-53
2022/06/18 06:53:07;;;;;;;11.20;7.00;;;;;;;29.45;49.49;99553.72;5111710;28;20285;-53
2022/06/18 06:58:23;;;;;;;10.20;8.15;;;;;;;28.36;52.28;99549.97;5110706;28;20270;-53
2022/06/18 07:00:52;;;;;;;6.78;6.32;;;;;;;27.97;54.04;99549.50;5108721;28;20201;-53
2022/06/18 07:03:24;;;;;;;7.28;6.78;;;;;;;27.86;54.51;99546.25;5111477;28;20218;-55
2022/06/18 07:05:51;;;;;;;8.93;8.05;;;;;;;27.62;55.40;99539.69;5108380;28;20207;-53
2022/06/18 07:08:17;;;;;;;10.35;9.60;;;;;;;27.56;56.01;99537.63;5111441;28;20627;-53
2022/06/18 07:10:48;;;;;;;8.85;7.75;;;;;;;27.63;55.30;99541.38;5111447;28;20279;-53
2022/06/18 07:13:15;;;;;;;8.70;8.15;;;;;;;27.65;55.53;99536.69;5109344;28;20191;-51
2022/06/18 07:15:43;;;;;;;6.65;6.15;;;;;;;27.55;55.94;99541.28;5111008;28;20687;-52
2022/06/18 07:18:17;;;;;;;10.10;9.20;;;;;;;27.31;56.62;99531.19;5108783;28;20263;-52
2022/06/18 07:20:44;;;;;;;13.35;11.50;;;;;;;27.18;57.18;99533.38;5111501;28;20278;-52
2022/06/18 07:23:11;;;;;;;9.20;8.40;;;;;;;27.19;57.42;99540.38;5112648;28;20202;-52
2022/06/18 07:25:38;;;;;;;11.93;10.95;;;;;;;26.92;59.25;99538.56;5112582;28;20202;-52
2022/06/18 07:28:07;;;;;;;9.02;8.43;;;;;;;26.70;59.94;99545.06;5111529;28;20305;-52
2022/06/18 07:30:35;;;;;;;8.07;7.43;;;;;;;26.65;60.24;99543.81;5103964;28;20196;-56
2022/06/18 07:33:02;;;;;;;8.27;7.57;;;;;;;26.55;60.37;99540.34;5111911;28;20199;-55
2022/06/18 07:35:34;;;;;;;8.63;8.00;;;;;;;26.72;60.45;99547.59;5111797;28;20194;-56
2022/06/18 07:38:02;;;;;;;10.07;9.23;;;;;;;26.58;61.14;99537.41;5111856;28;20194;-56
2022/06/18 07:40:34;;;;;;;8.60;7.93;;;;;;;26.47;60.62;99546.41;5112554;28;20250;-55
2022/06/18 07:43:02;;;;;;;8.50;7.68;;;;;;;26.42;61.01;99545.13;5112565;28;20226;-56
2022/06/18 07:45:31;;;;;;;8.80;7.85;;;;;;;26.34;60.55;99544.03;5112769;28;20674;-56
2022/06/18 07:47:57;;;;;;;9.52;8.68;;;;;;;26.22;61.10;99531.84;5112497;28;20305;-53
2022/06/18 07:50:24;;;;;;;9.82;8.85;;;;;;;26.42;59.93;99548.63;5111484;28;20205;-56
2022/06/18 07:52:52;;;;;;;10.85;8.80;;;;;;;26.47;59.11;99543.75;5111481;28;21024;-56
2022/06/18 07:55:22;;;;;;;7.95;7.30;;;;;;;26.66;58.76;99543.66;5111953;28;20194;-56
2022/06/18 07:57:49;;;;;;;8.95;8.10;;;;;;;26.68;58.73;99544.38;5112288;28;20194;-55
2022/06/18 08:00:18;;;;;;;9.77;9.05;;;;;;;26.59;59.57;99542.59;5111991;28;20226;-55
2022/06/18 08:02:47;;;;;;;8.45;7.45;;;;;;;26.63;60.16;99551.13;5111798;28;20618;-55
2022/06/18 08:05:21;;;;;;;9.05;8.38;;;;;;;26.75;59.59;99541.94;5111967;28;20203;-55
2022/06/18 08:07:48;;;;;;;7.78;7.22;;;;;;;26.96;57.88;99550.59;5111720;28;20222;-56
2022/06/18 08:10:16;;;;;;;9.23;8.23;;;;;;;27.27;57.02;99547.63;5111748;28;20289;-56
2022/06/18 08:12:43;;;;;;;9.38;8.35;;;;;;;27.45;55.20;99541.31;5111802;28;20666;-56
2022/06/18 08:15:11;;;;;;;9.30;8.50;;;;;;;27.57;54.63;99546.47;5111609;28;20194;-56
2022/06/18 08:17:38;;;;;;;8.10;7.32;;;;;;;27.82;54.31;99545.69;5111684;28;20588;-56
2022/06/18 08:20:09;;;;;;;7.97;7.22;;;;;;;27.98;54.83;99551.19;5108744;28;20633;-56
2022/06/18 08:22:39;;;;;;;10.05;9.25;;;;;;;28.16;55.09;99548.47;5107388;28;20191;-56
2022/06/18 08:25:08;;;;;;;9.55;8.70;;;;;;;28.48;54.38;99548.72;5110427;28;20670;-56
2022/06/18 08:27:36;;;;;;;7.93;7.25;;;;;;;28.73;51.37;99552.38;5107711;28;20221;-56
2022/06/18 08:30:04;;;;;;;8.27;7.68;;;;;;;29.12;51.35;99549.25;5110065;28;20207;-56
2022/06/18 08:32:32;;;;;;;7.78;7.28;;;;;;;29.63;50.18;99550.06;5110192;28;20269;-53
2022/06/18 08:34:58;;;;;;;10.65;6.57;;;;;;;29.89;47.75;99548.09;5109309;28;20194;-53
2022/06/18 08:37:28;;;;;;;8.23;7.53;;;;;;;30.49;46.16;99545.03;5110217;28;20700;-53
2022/06/18 08:39:58;;;;;;;9.27;8.45;;;;;;;31.33;43.93;99547.13;5107789;28;20195;-54
2022/06/18 08:42:43;;;;;;;7.57;7.05;;;;;;;32.05;42.44;99564.63;5110293;28;20198;-52
2022/06/18 08:45:25;;;;;;;7.10;6.40;;;;;;;32.29;39.27;99563.56;5109304;28;20589;-53
2022/06/18 08:48:15;;;;;;;6.82;6.43;;;;;;;32.35;38.75;99554.78;5109482;28;20225;-53
2022/06/18 08:50:59;;;;;;;6.43;6.03;;;;;;;32.44;39.36;99569.81;5108361;28;20671;-53
2022/06/18 08:53:57;;;;;;;10.75;8.10;;;;;;;32.44;40.29;99561.75;5108676;28;20208;-52
2022/06/18 08:56:32;;;;;;;7.90;7.18;;;;;;;32.16;40.09;99566.03;5108445;28;20283;-53
2022/06/18 08:59:09;;;;;;;7.47;7.07;;;;;;;32.03;41.06;99557.75;5109921;28;20281;-53
2022/06/18 09:01:41;;;;;;;6.97;6.57;;;;;;;31.97;41.31;99551.22;5107128;28;20577;-52
2022/06/18 09:04:18;;;;;;;8.30;7.40;;;;;;;31.87;41.88;99556.00;5109178;28;20198;-53
2022/06/18 09:07:05;;;;;;;7.30;6.90;;;;;;;31.95;42.00;99550.56;5109524;28;20281;-53
2022/06/18 09:09:45;;;;;;;6.85;6.40;;;;;;;31.53;42.85;99548.34;5108995;28;20218;-53
2022/06/18 09:12:17;;;;;;;7.93;7.07;;;;;;;31.02;44.98;99545.25;5109138;28;20203;-53
2022/06/18 09:14:49;;;;;;;8.25;7.57;;;;;;;30.74;45.73;99535.97;5109404;28;20665;-53
2022/06/18 09:17:19;;;;;;;7.90;7.22;;;;;;;30.43;46.55;99535.03;5106941;28;20285;-56
2022/06/18 09:19:53;;;;;;;8.82;8.05;;;;;;;30.35;47.76;99530.53;5109122;28;20197;-56
2022/06/18 09:22:20;;;;;;;8.80;8.02;;;;;;;30.21;48.10;99513.31;5107321;28;20281;-57
2022/06/18 09:24:53;;;;;;;8.13;7.53;;;;;;;30.44;46.96;99518.78;5108854;28;20231;-57
2022/06/18 09:27:25;;;;;;;7.90;7.28;;;;;;;30.43;46.16;99521.63;5107193;28;20282;-53
2022/06/18 09:30:02;;;;;;;7.75;7.18;;;;;;;30.29;45.23;99520.47;5109149;28;20586;-53
2022/06/18 09:32:38;;;;;;;8.02;7.38;;;;;;;30.19;45.87;99528.69;5109333;28;20201;-57
2022/06/18 09:35:13;;;;;;;7.50;6.68;;;;;;;30.03;46.71;99527.84;5109199;28;20198;-55
2022/06/18 09:37:48;;;;;;;8.20;7.53;;;;;;;30.37;45.85;99522.28;5106959;28;20277;-55
2022/06/18 09:40:20;;;;;;;10.68;7.15;;;;;;;30.33;45.74;99533.38;5106362;28;20293;-51
2022/06/18 09:42:52;;;;;;;7.60;7.10;;;;;;;30.71;45.64;99562.25;5108866;28;20186;-51
2022/06/18 09:45:23;;;;;;;7.28;6.82;;;;;;;30.78;46.21;99568.63;5106706;28;20186;-55
2022/06/18 09:47:52;;;;;;;7.28;6.88;;;;;;;30.88;46.43;99574.63;5108416;28;20191;-56
2022/06/18 09:50:25;;;;;;;7.32;6.72;;;;;;;30.02;47.87;99561.84;5108826;28;20191;-56
2022/06/18 09:53:01;;;;;;;8.18;7.47;;;;;;;29.22;49.44;99580.22;5108702;28;20670;-56
2022/06/18 09:55:39;;;;;;;9.05;5.35;;;;;;;28.14;48.05;99583.34;5108737;28;20294;-57
2022/06/18 09:58:14;;;;;;;31.30;7.00;;;;;;;27.12;48.55;99584.56;5109321;28;20673;-56
2022/06/18 10:00:42;;;;;;;16.27;5.85;;;;;;;26.24;48.67;99587.59;5110132;28;20669;-54
2022/06/18 10:06:52;;;;;;;7.28;4.35;;;;;;;26.09;48.37;99578.34;5109581;28;20222;-55
2022/06/18 10:08:49;;;;;;;6.45;5.85;;;;;;;25.87;44.99;99592.78;5109954;28;20728;-55
2022/06/18 10:11:21;;;;;;;5.90;5.28;;;;;;;25.57;45.43;99599.88;5110039;28;20222;-55
2022/06/18 10:13:54;;;;;;;6.72;4.70;;;;;;;25.13;47.31;99601.16;5109900;28;20690;-55
2022/06/18 10:16:32;;;;;;;7.28;4.53;;;;;;;24.91;51.87;99594.19;5109711;28;20200;-55
2022/06/18 10:19:06;;;;;;;5.63;4.57;;;;;;;24.55;59.08;99590.22;5110380;28;20195;-55
2022/06/18 10:21:41;;;;;;;6.03;5.60;;;;;;;24.47;62.08;99602.47;5114116;28;20194;-55
2022/06/18 10:24:14;;;;;;;8.38;5.90;;;;;;;24.43;65.66;99603.69;5113986;28;20212;-55
2022/06/18 10:26:51;;;;;;;6.40;6.00;;;;;;;24.29;70.24;99626.06;5113957;28;20246;-56
2022/06/18 10:29:28;;;;;;;5.60;5.00;;;;;;;24.10;67.94;99636.50;5113592;28;20218;-55
2022/06/18 10:32:08;;;;;;;4.63;4.32;;;;;;;23.85;68.07;99627.91;5113739;28;20191;-55
2022/06/18 10:35:00;;;;;;;6.20;4.40;;;;;;;23.68;68.29;99620.50;5113739;28;20208;-56
2022/06/18 10:37:38;;;;;;;3.97;3.67;;;;;;;23.75;68.68;99629.63;5113697;28;20205;-55
2022/06/18 10:40:16;;;;;;;4.22;4.03;;;;;;;23.86;67.12;99637.56;5112893;28;20187;-56
2022/06/18 10:42:59;;;;;;;4.72;3.67;;;;;;;23.73;66.29;99630.72;5114580;28;20625;-56
2022/06/18 10:45:33;;;;;;;4.38;4.07;;;;;;;23.71;67.11;99657.34;5114265;28;20670;-56
2022/06/18 10:48:01;;;;;;;4.32;4.13;;;;;;;23.75;67.66;99671.19;5114143;28;20209;-56
2022/06/18 10:50:28;;;;;;;8.02;4.22;;;;;;;23.71;68.53;99683.84;5114138;28;20201;-56
2022/06/18 10:53:00;;;;;;;6.05;5.28;;;;;;;23.67;70.36;99690.38;5112718;28;20202;-56
2022/06/18 10:55:27;;;;;;;5.32;4.82;;;;;;;23.71;69.89;99694.44;5111417;28;20630;-55
2022/06/18 10:58:08;;;;;;;5.90;5.50;;;;;;;23.82;69.69;99709.47;5113025;28;20273;-56
2022/06/18 11:00:35;;;;;;;5.38;4.93;;;;;;;23.82;69.00;99701.53;5113666;28;20194;-57
2022/06/18 11:03:04;;;;;;;5.65;5.20;;;;;;;23.94;66.95;99712.97;5112370;28;20315;-55
2022/06/18 11:05:34;;;;;;;6.15;5.55;;;;;;;24.03;67.60;99717.53;5112171;28;20194;-56
2022/06/18 11:08:04;;;;;;;7.65;5.60;;;;;;;24.07;69.76;99717.16;5112287;28;20206;-56
2022/06/18 11:10:43;;;;;;;6.10;5.60;;;;;;;23.97;73.75;99721.50;5112458;28;20281;-56
2022/06/18 11:13:22;;;;;;;8.13;5.72;;;;;;;23.92;74.33;99720.22;5112415;28;20191;-55
2022/06/18 11:15:49;;;;;;;8.57;7.68;;;;;;;23.67;80.75;99716.88;5112047;28;20194;-56
2022/06/18 11:18:19;;;;;;;6.85;6.22;;;;;;;23.59;81.23;99721.91;5109630;28;20195;-55
2022/06/18 11:21:00;;;;;;;9.90;7.63;;;;;;;23.41;86.82;99712.75;5112389;28;20220;-55
2022/06/18 11:23:28;;;;;;;10.50;9.50;;;;;;;23.24;93.87;99706.16;5111213;28;20736;-56
2022/06/18 11:25:58;;;;;;;8.18;6.95;;;;;;;23.03;90.85;99719.22;5111929;28;20197;-53
2022/06/18 11:28:33;;;;;;;11.15;8.20;;;;;;;22.90;97.45;99717.66;5111745;28;20236;-53
2022/06/18 11:31:03;;;;;;;9.77;7.85;;;;;;;22.73;100.00;99718.88;5109252;28;20289;-54
2022/06/18 11:33:33;;;;;;;9.23;8.43;;;;;;;22.46;100.00;99709.41;5111907;28;20678;-53
2022/06/18 11:36:08;;;;;;;14.38;9.90;;;;;;;22.29;100.00;99720.41;5111676;28;20197;-53
2022/06/18 11:38:36;;;;;;;13.55;11.18;;;;;;;22.00;100.00;99716.44;5108988;28;20190;-53
2022/06/18 11:41:11;;;;;;;13.35;10.45;;;;;;;21.76;100.00;99702.31;5111703;28;20187;-52
2022/06/18 11:43:50;;;;;;;11.13;9.98;;;;;;;21.72;100.00;99701.66;5109360;28;20213;-53
2022/06/18 11:46:22;;;;;;;10.10;9.27;;;;;;;21.59;100.00;99695.56;5109007;28;20668;-53
2022/06/18 11:48:57;;;;;;;9.35;8.60;;;;;;;21.57;100.00;99692.19;5111352;28;20298;-52
2022/06/18 11:51:31;;;;;;;8.88;8.27;;;;;;;21.51;100.00;99672.34;5109870;28;20190;-52
2022/06/18 11:54:10;;;;;;;9.90;8.75;;;;;;;21.22;100.00;99670.94;5108412;28;20233;-53